createdAt,value
2022-10-11T00:01:09.832Z,2.10
2022-10-11T00:03:36.380Z,2.23
2022-10-11T00:06:05.712Z,2.40
2022-10-11T00:08:33.605Z,2.03
2022-10-11T00:11:03.011Z,1.90
2022-10-11T00:13:30.065Z,2.60
2022-10-11T00:15:56.626Z,2.17
2022-10-11T00:18:23.685Z,2.73
2022-10-11T00:20:50.055Z,2.80
2022-10-11T00:23:16.962Z,2.60
2022-10-11T00:25:43.391Z,2.43
2022-10-11T00:28:09.842Z,2.80
2022-10-11T00:30:36.223Z,2.07
2022-10-11T00:33:02.802Z,2.30
2022-10-11T00:35:29.221Z,2.63
2022-10-11T00:37:56.963Z,2.17
2022-10-11T00:40:23.624Z,2.63
2022-10-11T00:42:50.076Z,2.33
2022-10-11T00:45:31.523Z,2.83
2022-10-11T00:48:04.767Z,2.27
2022-10-11T00:50:33.969Z,2.93
2022-10-11T00:53:07.821Z,2.23
2022-10-11T00:55:40.246Z,2.33
2022-10-11T00:58:07.485Z,2.07
2022-10-11T01:00:34.197Z,2.10
2022-10-11T01:03:01.316Z,2.80
2022-10-11T01:05:29.993Z,2.07
2022-10-11T01:07:59.123Z,2.43
2022-10-11T01:10:26.763Z,2.50
2022-10-11T01:12:53.093Z,2.20
2022-10-11T01:15:31.326Z,2.00
2022-10-11T01:18:26.115Z,2.13
2022-10-11T01:21:13.202Z,1.70
2022-10-11T01:23:39.660Z,1.77
2022-10-11T01:26:46.224Z,2.50
2022-10-11T01:29:23.892Z,2.60
2022-10-11T01:32:13.121Z,1.90
2022-10-11T01:35:12.855Z,2.30
2022-10-11T01:37:43.957Z,1.90
2022-10-11T01:40:21.243Z,2.10
2022-10-11T01:42:48.628Z,2.60
2022-10-11T01:45:18.238Z,2.20
2022-10-11T01:47:48.674Z,2.30
2022-10-11T01:50:41.687Z,2.20
2022-10-11T01:53:32.427Z,2.30
2022-10-11T01:56:39.378Z,2.00
2022-10-11T01:59:12.464Z,2.30
2022-10-11T02:02:00.307Z,1.77
2022-10-11T02:04:32.585Z,2.03
2022-10-11T02:07:14.270Z,1.90
2022-10-11T02:10:00.369Z,1.70
2022-10-11T02:12:32.675Z,1.93
2022-10-11T02:15:02.722Z,2.43
2022-10-11T02:17:35.679Z,2.10
2022-10-11T02:20:08.571Z,1.80
2022-10-11T02:22:39.166Z,2.40
2022-10-11T02:25:10.208Z,2.40
2022-10-11T02:27:40.532Z,2.00
2022-10-11T02:30:08.894Z,1.53
2022-10-11T02:32:38.196Z,2.20
2022-10-11T02:35:05.159Z,1.77
2022-10-11T02:37:40.392Z,2.20
2022-10-11T02:40:06.898Z,2.30
2022-10-11T02:42:38.841Z,1.83
2022-10-11T02:45:23.216Z,1.70
2022-10-11T02:47:49.947Z,1.70
2022-10-11T02:50:16.937Z,1.63
2022-10-11T02:52:43.343Z,2.10
2022-10-11T02:55:10.927Z,2.10
2022-10-11T02:57:37.296Z,2.10
2022-10-11T03:00:04.848Z,2.87
2022-10-11T03:02:31.273Z,2.03
2022-10-11T03:04:57.784Z,1.83
2022-10-11T03:07:24.561Z,2.00
2022-10-11T03:09:51.004Z,2.17
2022-10-11T03:12:17.413Z,2.10
2022-10-11T03:14:43.821Z,2.10
2022-10-11T03:17:34.656Z,1.60
2022-10-11T03:19:56.560Z,1.60
2022-10-11T03:22:23.020Z,1.70
2022-10-11T03:24:49.427Z,2.63
2022-10-11T03:27:15.986Z,1.60
2022-10-11T03:29:42.370Z,1.50
2022-10-11T03:32:08.750Z,1.80
2022-10-11T03:34:35.164Z,2.00
2022-10-11T03:37:01.553Z,2.27
2022-10-11T03:39:28.260Z,2.80
2022-10-11T03:41:54.693Z,2.30
2022-10-11T03:44:21.066Z,2.47
2022-10-11T03:46:47.470Z,1.70
2022-10-11T03:49:13.869Z,2.27
2022-10-11T03:51:40.238Z,1.83
2022-10-11T03:54:06.605Z,1.80
2022-10-11T03:56:32.994Z,1.70
2022-10-11T03:58:59.448Z,2.33
2022-10-11T04:01:25.869Z,2.40
2022-10-11T04:03:55.372Z,1.93
2022-10-11T04:06:21.782Z,2.20
2022-10-11T04:08:48.192Z,2.73
2022-10-11T04:11:14.563Z,2.30
2022-10-11T04:13:40.959Z,2.77
2022-10-11T04:16:07.651Z,2.33
2022-10-11T04:18:34.324Z,2.30
2022-10-11T04:21:00.745Z,2.40
2022-10-11T04:23:27.269Z,2.03
2022-10-11T04:25:53.624Z,2.10
2022-10-11T04:28:20.054Z,2.53
2022-10-11T04:30:46.565Z,2.47
2022-10-11T04:33:12.991Z,1.83
2022-10-11T04:35:39.908Z,3.67
2022-10-11T04:38:06.501Z,2.90
2022-10-11T04:40:33.159Z,3.30
2022-10-11T04:42:59.606Z,3.27
2022-10-11T04:45:26.392Z,3.03
2022-10-11T04:47:52.847Z,3.20
2022-10-11T04:50:19.262Z,3.17
2022-10-11T04:52:45.616Z,3.10
2022-10-11T04:55:12.181Z,3.53
2022-10-11T04:57:38.606Z,3.23
2022-10-11T05:00:05.757Z,3.20
2022-10-11T05:02:32.378Z,3.07
2022-10-11T05:04:58.909Z,4.13
2022-10-11T05:07:25.303Z,3.60
2022-10-11T05:09:51.693Z,6.03
2022-10-11T05:12:18.060Z,7.00
2022-10-11T05:14:44.507Z,6.90
2022-10-11T05:17:10.940Z,9.70
2022-10-11T05:19:37.407Z,8.87
2022-10-11T05:22:03.845Z,8.60
2022-10-11T05:24:30.303Z,9.30
2022-10-11T05:27:00.903Z,8.33
2022-10-11T05:29:29.605Z,8.77
2022-10-11T05:31:56.024Z,7.57
2022-10-11T05:34:22.503Z,8.93
2022-10-11T05:36:48.897Z,8.27
2022-10-11T05:39:15.754Z,9.37
2022-10-11T05:41:42.136Z,8.97
2022-10-11T05:44:09.872Z,8.03
2022-10-11T05:46:36.504Z,8.37
2022-10-11T05:49:02.966Z,7.83
2022-10-11T05:51:29.353Z,7.47
2022-10-11T05:53:55.809Z,7.90
2022-10-11T05:56:24.371Z,8.03
2022-10-11T05:58:51.269Z,7.63
2022-10-11T06:01:20.546Z,6.30
2022-10-11T06:03:47.341Z,7.60
2022-10-11T06:06:14.306Z,7.20
2022-10-11T06:08:41.023Z,7.37
2022-10-11T06:11:22.330Z,7.63
2022-10-11T06:13:48.776Z,6.87
2022-10-11T06:16:15.961Z,8.73
2022-10-11T06:18:42.651Z,8.23
2022-10-11T06:21:09.348Z,11.50
2022-10-11T06:23:35.748Z,12.00
2022-10-11T06:26:07.220Z,11.57
2022-10-11T06:28:35.293Z,14.30
2022-10-11T06:31:04.193Z,16.33
2022-10-11T06:33:30.695Z,13.03
2022-10-11T06:35:59.690Z,12.37
2022-10-11T06:38:26.582Z,9.67
2022-10-11T06:40:53.396Z,10.20
2022-10-11T06:43:20.020Z,9.43
2022-10-11T06:45:46.435Z,8.40
2022-10-11T06:48:12.863Z,9.57
2022-10-11T06:50:58.368Z,9.97
2022-10-11T06:53:26.621Z,9.10
2022-10-11T06:55:53.061Z,9.77
2022-10-11T06:58:19.449Z,10.90
2022-10-11T07:00:45.881Z,11.40
2022-10-11T07:03:12.316Z,11.10
2022-10-11T07:05:38.801Z,11.40
2022-10-11T07:08:05.254Z,10.80
2022-10-11T07:10:31.617Z,11.20
2022-10-11T07:12:57.979Z,10.80
2022-10-11T07:15:24.369Z,11.30
2022-10-11T07:17:50.775Z,11.43
2022-10-11T07:20:17.302Z,10.60
2022-10-11T07:22:43.764Z,11.60
2022-10-11T07:25:10.260Z,10.40
2022-10-11T07:27:36.696Z,11.20
2022-10-11T07:30:03.200Z,12.10
2022-10-11T07:32:29.599Z,10.83
2022-10-11T07:34:56.493Z,11.80
2022-10-11T07:37:22.914Z,11.80
2022-10-11T07:39:49.556Z,11.90
2022-10-11T07:42:15.974Z,11.43
2022-10-11T07:44:42.441Z,11.40
2022-10-11T07:47:11.282Z,11.70
2022-10-11T07:49:38.018Z,10.47
2022-10-11T07:52:04.640Z,11.07
2022-10-11T07:54:31.006Z,11.60
2022-10-11T07:56:57.433Z,12.30
2022-10-11T07:59:23.815Z,12.70
2022-10-11T08:01:50.532Z,12.30
2022-10-11T08:04:17.039Z,12.67
2022-10-11T08:06:43.559Z,12.53
2022-10-11T08:09:10.426Z,13.30
2022-10-11T08:11:37.693Z,12.03
2022-10-11T08:14:08.656Z,12.83
2022-10-11T08:16:36.409Z,12.20
2022-10-11T08:19:03.311Z,10.87
2022-10-11T08:21:30.612Z,12.70
2022-10-11T08:23:57.098Z,10.90
2022-10-11T08:26:26.722Z,11.10
2022-10-11T08:28:53.208Z,11.53
2022-10-11T08:31:19.782Z,10.80
2022-10-11T08:33:46.440Z,10.17
2022-10-11T08:36:13.496Z,10.10
2022-10-11T08:38:40.312Z,10.80
2022-10-11T08:41:42.382Z,10.57
2022-10-11T08:44:14.664Z,10.10
2022-10-11T08:46:45.799Z,10.27
2022-10-11T08:49:14.482Z,9.80
2022-10-11T08:51:47.074Z,10.00
2022-10-11T08:54:43.213Z,10.13
2022-10-11T08:57:14.539Z,10.80
2022-10-11T08:59:47.035Z,9.83
2022-10-11T09:02:55.767Z,11.23
2022-10-11T09:05:19.729Z,10.10
2022-10-11T09:08:07.245Z,10.60
2022-10-11T09:10:57.139Z,9.20
2022-10-11T09:13:52.309Z,10.50
2022-10-11T09:16:56.257Z,10.13
2022-10-11T09:19:44.530Z,9.20
2022-10-11T09:22:30.353Z,9.43
2022-10-11T09:25:21.617Z,8.50
2022-10-11T09:28:15.555Z,8.67
2022-10-11T09:30:48.835Z,9.47
2022-10-11T09:33:31.724Z,8.50
2022-10-11T09:35:58.860Z,10.07
2022-10-11T09:38:41.049Z,9.73
2022-10-11T09:41:21.760Z,10.07
2022-10-11T09:43:50.888Z,9.17
2022-10-11T09:46:31.779Z,9.27
2022-10-11T09:48:59.853Z,7.87
2022-10-11T09:51:27.741Z,9.10
2022-10-11T09:54:06.332Z,8.83
2022-10-11T09:56:40.309Z,9.67
2022-10-11T09:59:33.217Z,8.47
2022-10-11T10:02:19.974Z,8.00
2022-10-11T10:05:03.569Z,8.60
2022-10-11T10:07:31.985Z,8.63
2022-10-11T10:09:58.460Z,7.90
2022-10-11T10:12:28.880Z,7.80
2022-10-11T10:15:13.887Z,8.47
2022-10-11T10:17:49.433Z,7.57
2022-10-11T10:20:28.693Z,7.03
2022-10-11T10:22:55.254Z,8.30
2022-10-11T10:25:32.796Z,8.60
2022-10-11T10:28:01.391Z,8.43
2022-10-11T10:30:33.082Z,8.50
2022-10-11T10:33:09.599Z,8.57
2022-10-11T10:35:41.361Z,6.77
2022-10-11T10:38:26.594Z,8.37
2022-10-11T10:40:59.150Z,6.80
2022-10-11T10:43:29.823Z,6.67
2022-10-11T10:46:11.374Z,7.40
2022-10-11T10:51:57.812Z,6.70
2022-10-11T10:54:51.875Z,6.77
2022-10-11T10:57:40.209Z,7.10
2022-10-11T11:00:24.783Z,6.07
2022-10-11T11:03:08.628Z,6.50
2022-10-11T11:05:48.396Z,6.43
2022-10-11T11:08:36.601Z,5.70
2022-10-11T11:11:31.709Z,5.23
2022-10-11T11:14:36.183Z,5.20
2022-10-11T11:17:17.189Z,5.37
2022-10-11T11:19:43.490Z,4.20
2022-10-11T11:22:15.729Z,4.13
2022-10-11T11:25:05.153Z,3.50
2022-10-11T11:27:37.443Z,2.60
2022-10-11T11:30:36.130Z,2.87
2022-10-11T11:33:36.375Z,2.80
2022-10-11T11:36:10.856Z,2.70
2022-10-11T11:39:09.491Z,2.37
2022-10-11T11:41:40.779Z,2.90
2022-10-11T11:44:17.403Z,1.97
2022-10-11T11:46:56.764Z,2.10
2022-10-11T11:49:34.955Z,2.70
2022-10-11T11:52:03.082Z,2.03
2022-10-11T11:54:57.269Z,1.90
2022-10-11T11:57:48.814Z,2.20
2022-10-11T12:00:18.119Z,2.10
2022-10-11T12:02:57.156Z,2.03
2022-10-11T12:05:28.508Z,2.10
2022-10-11T12:08:24.045Z,1.93
2022-10-11T12:10:50.444Z,2.10
2022-10-11T12:13:31.929Z,1.70
2022-10-11T12:16:06.194Z,1.90
2022-10-11T12:18:37.135Z,2.00
2022-10-11T12:21:17.483Z,1.80
2022-10-11T12:23:49.925Z,2.13
2022-10-11T12:26:28.067Z,2.17
2022-10-11T12:29:28.428Z,2.20
2022-10-11T12:31:58.317Z,1.77
2022-10-11T12:34:44.055Z,1.83
2022-10-11T12:37:19.579Z,2.37
2022-10-11T12:39:49.091Z,2.20
2022-10-11T12:42:26.613Z,2.13
2022-10-11T12:45:11.976Z,1.93
2022-10-11T12:48:21.538Z,2.07
2022-10-11T12:51:16.372Z,2.10
2022-10-11T12:54:25.500Z,1.63
2022-10-11T12:57:12.094Z,1.67
2022-10-11T12:59:44.605Z,1.90
2022-10-11T13:02:29.094Z,2.40
2022-10-11T13:05:22.157Z,2.50
2022-10-11T13:07:49.977Z,2.33
2022-10-11T13:10:24.195Z,1.80
2022-10-11T13:12:52.063Z,2.03
2022-10-11T13:15:21.849Z,2.27
2022-10-11T13:17:54.170Z,2.10
2022-10-11T13:20:25.377Z,1.97
2022-10-11T13:22:54.593Z,2.20
2022-10-11T13:25:27.722Z,1.63
2022-10-11T13:27:57.395Z,2.40
2022-10-11T13:30:34.280Z,2.53
2022-10-11T13:33:05.906Z,2.57
2022-10-11T13:35:37.376Z,2.20
2022-10-11T13:38:07.883Z,3.50
2022-10-11T13:40:35.595Z,2.97
2022-10-11T13:43:05.163Z,2.80
2022-10-11T13:45:32.722Z,2.20
2022-10-11T13:47:59.379Z,1.77
2022-10-11T13:50:35.251Z,1.93
2022-10-11T13:53:04.602Z,1.53
2022-10-11T13:55:34.648Z,1.60
2022-10-11T13:58:08.892Z,1.70
2022-10-11T14:00:38.362Z,1.60
2022-10-11T14:03:18.961Z,1.50
2022-10-11T14:05:55.111Z,1.80
2022-10-11T14:08:21.446Z,1.50
2022-10-11T14:10:52.836Z,1.50
2022-10-11T14:13:25.724Z,1.30
2022-10-11T14:16:13.015Z,1.60
2022-10-11T14:18:45.394Z,1.90
2022-10-11T14:21:34.613Z,1.97
2022-10-11T14:24:10.339Z,2.40
2022-10-11T14:26:40.425Z,1.87
2022-10-11T14:29:32.271Z,1.90
2022-10-11T14:32:22.993Z,1.90
2022-10-11T14:34:49.632Z,1.67
2022-10-11T14:37:17.779Z,1.63
2022-10-11T14:39:47.381Z,2.20
2022-10-11T14:42:14.965Z,1.80
2022-10-11T14:44:41.542Z,2.17
2022-10-11T14:47:08.633Z,1.83
2022-10-11T14:49:36.784Z,2.10
2022-10-11T14:52:05.947Z,1.97
2022-10-11T14:54:33.109Z,1.87
2022-10-11T14:57:03.128Z,2.33
2022-10-11T14:59:36.836Z,1.63
2022-10-11T15:02:06.037Z,1.60
2022-10-11T15:04:32.989Z,1.90
2022-10-11T15:06:59.473Z,1.53
2022-10-11T15:09:25.943Z,1.63
2022-10-11T15:11:54.226Z,1.90
2022-10-11T15:14:22.378Z,1.43
2022-10-11T15:16:48.899Z,1.40
2022-10-11T15:19:18.682Z,1.63
2022-10-11T15:21:45.614Z,1.17
2022-10-11T15:24:12.027Z,1.90
2022-10-11T15:26:38.467Z,1.90
2022-10-11T15:29:06.432Z,1.57
2022-10-11T15:31:32.864Z,1.30
2022-10-11T15:34:01.616Z,1.97
2022-10-11T15:36:29.521Z,2.07
2022-10-11T15:38:56.553Z,1.80
2022-10-11T15:41:24.026Z,2.10
2022-10-11T15:43:50.748Z,1.83
2022-10-11T15:46:20.082Z,1.53
2022-10-11T15:48:46.959Z,1.93
2022-10-11T15:51:13.460Z,1.43
2022-10-11T15:53:40.207Z,1.97
2022-10-11T15:56:09.911Z,1.77
2022-10-11T15:58:39.084Z,2.07
2022-10-11T16:01:08.972Z,2.27
2022-10-11T16:03:36.086Z,1.87
2022-10-11T16:06:05.586Z,2.40
2022-10-11T16:08:33.249Z,2.87
2022-10-11T16:11:00.082Z,3.47
2022-10-11T16:13:26.560Z,5.23
2022-10-11T16:15:53.216Z,11.23
2022-10-11T16:18:21.080Z,9.27
2022-10-11T16:20:50.971Z,5.43
2022-10-11T16:23:17.721Z,4.07
2022-10-11T16:25:44.113Z,3.57
2022-10-11T16:28:10.870Z,3.13
2022-10-11T16:30:43.181Z,2.70
2022-10-11T16:33:09.732Z,2.50
2022-10-11T16:35:36.158Z,1.80
2022-10-11T16:38:02.635Z,2.10
2022-10-11T16:40:30.049Z,2.23
2022-10-11T16:42:56.539Z,1.50
2022-10-11T16:45:23.253Z,2.13
2022-10-11T16:47:50.173Z,1.47
2022-10-11T16:50:16.624Z,2.20
2022-10-11T16:52:43.079Z,1.70
2022-10-11T16:55:09.927Z,2.30
2022-10-11T16:57:37.796Z,1.53
2022-10-11T17:00:07.800Z,2.13
2022-10-11T17:02:34.700Z,1.50
2022-10-11T17:05:01.209Z,1.60
2022-10-11T17:07:28.628Z,2.23
2022-10-11T17:09:55.147Z,2.03
2022-10-11T17:12:23.274Z,1.90
2022-10-11T17:14:50.545Z,1.90
2022-10-11T17:17:20.481Z,1.90
2022-10-11T17:19:47.641Z,2.30
2022-10-11T17:22:16.717Z,2.10
2022-10-11T17:24:43.419Z,2.33
2022-10-11T17:27:09.816Z,2.10
2022-10-11T17:29:36.866Z,1.90
2022-10-11T17:32:03.905Z,2.27
2022-10-11T17:34:30.669Z,1.80
2022-10-11T17:36:57.028Z,2.80
2022-10-11T17:39:25.239Z,1.63
2022-10-11T17:41:52.177Z,2.30
2022-10-11T17:44:19.373Z,1.63
2022-10-11T17:46:46.485Z,2.30
2022-10-11T17:49:13.575Z,1.77
2022-10-11T17:51:41.097Z,1.87
2022-10-11T17:54:12.262Z,1.77
2022-10-11T17:56:40.582Z,3.50
2022-10-11T17:59:07.977Z,3.20
2022-10-11T18:01:34.820Z,2.20
2022-10-11T18:04:04.163Z,2.67
2022-10-11T18:06:33.017Z,2.40
2022-10-11T18:09:01.764Z,2.80
2022-10-11T18:11:29.372Z,1.83
2022-10-11T18:13:56.559Z,2.13
2022-10-11T18:16:26.938Z,2.20
2022-10-11T18:18:53.644Z,2.20
2022-10-11T18:21:20.389Z,2.40
2022-10-11T18:23:46.749Z,1.90
2022-10-11T18:26:16.061Z,2.60
2022-10-11T18:28:43.896Z,2.33
2022-10-11T18:31:20.126Z,2.40
2022-10-11T18:33:48.058Z,2.13
2022-10-11T18:36:16.337Z,2.33
2022-10-11T18:38:46.400Z,2.27
2022-10-11T18:41:15.075Z,2.67
2022-10-11T18:43:41.747Z,3.17
2022-10-11T18:46:10.836Z,2.53
2022-10-11T18:48:41.213Z,3.43
2022-10-11T18:51:14.107Z,3.20
2022-10-11T18:53:40.573Z,4.03
2022-10-11T18:56:09.031Z,3.47
2022-10-11T18:58:37.650Z,4.07
2022-10-11T19:01:10.093Z,3.37
2022-10-11T19:03:37.169Z,5.10
2022-10-11T19:06:09.526Z,3.17
2022-10-11T19:08:36.104Z,4.47
2022-10-11T19:11:07.345Z,4.80
2022-10-11T19:13:35.099Z,5.37
2022-10-11T19:16:06.800Z,4.80
2022-10-11T19:18:33.987Z,4.40
2022-10-11T19:21:02.450Z,3.90
2022-10-11T19:23:35.748Z,2.60
2022-10-11T19:26:02.535Z,2.80
2022-10-11T19:28:30.144Z,2.30
2022-10-11T19:31:04.874Z,3.60
2022-10-11T19:33:32.719Z,3.30
2022-10-11T19:36:02.427Z,3.50
2022-10-11T19:38:29.802Z,3.80
2022-10-11T19:40:56.592Z,5.90
2022-10-11T19:43:23.273Z,3.53
2022-10-11T19:45:49.687Z,4.70
2022-10-11T19:48:16.185Z,3.30
2022-10-11T19:50:42.567Z,3.20
2022-10-11T19:53:08.992Z,3.40
2022-10-11T19:55:35.480Z,3.40
2022-10-11T19:58:08.030Z,3.30
2022-10-11T20:00:34.780Z,3.50
2022-10-11T20:03:01.256Z,3.30
2022-10-11T20:05:27.617Z,3.67
2022-10-11T20:07:54.047Z,3.53
2022-10-11T20:10:20.393Z,3.90
2022-10-11T20:12:46.989Z,3.43
2022-10-11T20:15:13.400Z,3.83
2022-10-11T20:17:48.569Z,3.40
2022-10-11T20:20:17.269Z,3.60
2022-10-11T20:22:43.791Z,3.37
2022-10-11T20:25:10.841Z,3.37
2022-10-11T20:27:37.283Z,2.90
2022-10-11T20:30:04.939Z,3.50
2022-10-11T20:32:31.370Z,2.90
2022-10-11T20:34:57.819Z,2.80
2022-10-11T20:37:24.258Z,3.47
2022-10-11T20:39:50.707Z,4.10
2022-10-11T20:42:17.219Z,3.50
2022-10-11T20:44:44.484Z,3.00
2022-10-11T20:47:10.907Z,3.13
2022-10-11T20:49:37.361Z,3.50
2022-10-11T20:52:03.870Z,3.70
2022-10-11T20:54:30.540Z,3.50
2022-10-11T20:56:57.594Z,3.37
2022-10-11T20:59:24.122Z,3.10
2022-10-11T21:01:50.578Z,3.50
2022-10-11T21:04:19.946Z,3.00
2022-10-11T21:06:48.212Z,3.33
2022-10-11T21:09:16.809Z,5.17
2022-10-11T21:11:43.661Z,5.30
2022-10-11T21:14:10.177Z,5.73
2022-10-11T21:16:36.637Z,4.00
2022-10-11T21:19:04.034Z,4.00
2022-10-11T21:21:30.621Z,3.90
2022-10-11T21:24:01.718Z,3.60
2022-10-11T21:26:29.208Z,3.90
2022-10-11T21:28:55.874Z,3.83
2022-10-11T21:31:23.507Z,3.83
2022-10-11T21:33:50.559Z,2.90
2022-10-11T21:36:22.050Z,2.93
2022-10-11T21:38:49.288Z,3.40
2022-10-11T21:41:18.174Z,3.47
2022-10-11T21:43:44.873Z,4.20
2022-10-11T21:46:12.594Z,4.47
2022-10-11T21:48:39.049Z,4.37
2022-10-11T21:51:06.427Z,3.70
2022-10-11T21:53:33.408Z,3.60
2022-10-11T21:56:00.763Z,4.40
2022-10-11T21:58:27.460Z,4.00
2022-10-11T22:00:53.931Z,4.43
2022-10-11T22:03:20.376Z,4.00
2022-10-11T22:05:47.338Z,4.00
2022-10-11T22:08:14.580Z,3.87
2022-10-11T22:10:51.690Z,3.73
2022-10-11T22:13:18.091Z,3.80
2022-10-11T22:15:44.531Z,4.07
2022-10-11T22:18:10.979Z,3.63
2022-10-11T22:20:37.402Z,4.27
2022-10-11T22:23:03.828Z,3.80
2022-10-11T22:25:30.638Z,3.00
2022-10-11T22:27:57.023Z,3.07
2022-10-11T22:30:23.428Z,3.87
2022-10-11T22:32:50.903Z,3.40
2022-10-11T22:35:17.334Z,3.00
2022-10-11T22:37:43.981Z,3.13
2022-10-11T22:40:10.501Z,3.60
2022-10-11T22:42:37.034Z,3.60
2022-10-11T22:45:04.254Z,3.60
2022-10-11T22:47:30.632Z,3.37
2022-10-11T22:49:57.008Z,3.30
2022-10-11T22:52:23.410Z,3.60
2022-10-11T22:54:49.878Z,3.00
2022-10-11T22:57:16.293Z,3.03
2022-10-11T22:59:42.693Z,3.13
2022-10-11T23:02:09.117Z,3.07
2022-10-11T23:04:35.559Z,3.43
2022-10-11T23:07:05.001Z,3.10
2022-10-11T23:09:31.792Z,3.40
2022-10-11T23:11:59.106Z,3.10
2022-10-11T23:14:25.505Z,3.47
2022-10-11T23:16:51.990Z,3.23
2022-10-11T23:19:18.469Z,3.37
2022-10-11T23:21:44.911Z,3.43
2022-10-11T23:24:11.539Z,2.93
2022-10-11T23:26:37.984Z,3.03
2022-10-11T23:29:04.409Z,3.27
2022-10-11T23:31:30.775Z,3.40
2022-10-11T23:33:57.565Z,3.40
2022-10-11T23:36:25.971Z,2.47
2022-10-11T23:38:57.317Z,2.53
2022-10-11T23:41:26.526Z,2.60
2022-10-11T23:43:53.239Z,3.03
2022-10-11T23:46:19.622Z,2.73
2022-10-11T23:48:46.006Z,2.83
2022-10-11T23:51:13.227Z,3.00
2022-10-11T23:53:39.607Z,2.60
2022-10-11T23:56:06.459Z,3.17
2022-10-11T23:58:32.973Z,3.30
